createdAt,value
2023-04-18T00:00:30.624Z,6.75
2023-04-18T00:05:32.345Z,6.80
2023-04-18T00:10:34.002Z,6.76
2023-04-18T00:15:35.747Z,6.73
2023-04-18T00:20:39.011Z,6.79
2023-04-18T00:25:40.935Z,6.86
2023-04-18T00:30:42.654Z,6.93
2023-04-18T00:35:44.570Z,6.93
2023-04-18T00:40:46.368Z,7.00
2023-04-18T00:45:48.100Z,7.16
2023-04-18T00:50:49.871Z,7.18
2023-04-18T00:55:51.858Z,7.25
2023-04-18T01:00:54.726Z,7.37
2023-04-18T01:05:57.534Z,7.38
2023-04-18T01:11:00.021Z,7.38
2023-04-18T01:16:01.833Z,7.50
2023-04-18T01:21:06.237Z,7.58
2023-04-18T01:26:07.959Z,7.61
2023-04-18T01:31:09.683Z,7.58
2023-04-18T01:36:11.803Z,7.61
2023-04-18T01:41:13.510Z,7.62
2023-04-18T01:46:17.361Z,7.44
2023-04-18T01:51:19.085Z,7.37
2023-04-18T01:56:21.167Z,7.52
2023-04-18T02:01:22.993Z,7.49
2023-04-18T02:06:24.826Z,7.36
2023-04-18T02:11:26.791Z,7.39
2023-04-18T02:16:28.532Z,7.37
2023-04-18T02:21:30.726Z,7.40
2023-04-18T02:26:32.504Z,7.42
2023-04-18T02:31:34.283Z,7.41
2023-04-18T02:36:36.023Z,7.47
2023-04-18T02:41:39.304Z,7.38
2023-04-18T02:46:41.013Z,7.28
2023-04-18T02:51:47.112Z,7.40
2023-04-18T02:56:49.951Z,7.43
2023-04-18T03:01:57.651Z,7.33
2023-04-18T03:06:59.868Z,7.47
2023-04-18T03:12:04.165Z,7.07
2023-04-18T03:17:07.277Z,7.10
2023-04-18T03:22:16.184Z,7.17
2023-04-18T03:27:25.961Z,7.24
2023-04-18T03:32:28.027Z,7.05
2023-04-18T03:37:29.823Z,7.15
2023-04-18T03:42:32.736Z,7.03
2023-04-18T03:47:34.627Z,6.91
2023-04-18T03:52:36.472Z,6.72
2023-04-18T03:57:40.836Z,6.67
2023-04-18T04:02:47.808Z,6.73
2023-04-18T04:07:54.993Z,6.82
2023-04-18T04:12:57.740Z,6.79
2023-04-18T04:17:59.754Z,6.50
2023-04-18T04:23:03.467Z,6.50
2023-04-18T04:28:08.222Z,6.46
2023-04-18T04:33:25.099Z,6.31
2023-04-18T04:38:30.988Z,6.49
2023-04-18T04:43:34.117Z,6.49
2023-04-18T04:48:36.134Z,6.54
2023-04-18T04:53:39.004Z,6.53
2023-04-18T04:58:42.143Z,6.49
2023-04-18T05:03:49.944Z,6.55
2023-04-18T05:08:51.878Z,6.48
2023-04-18T05:13:53.541Z,6.35
2023-04-18T05:18:55.251Z,6.35
2023-04-18T05:23:56.969Z,6.25
2023-04-18T05:28:58.660Z,6.33
2023-04-18T05:34:00.710Z,6.42
2023-04-18T05:39:02.455Z,6.39
2023-04-18T05:44:05.624Z,6.37
2023-04-18T05:49:07.606Z,6.20
2023-04-18T05:54:09.373Z,6.35
2023-04-18T05:59:11.320Z,6.32
2023-04-18T06:04:13.523Z,6.26
2023-04-18T06:09:15.768Z,6.07
2023-04-18T06:14:17.554Z,6.00
2023-04-18T06:19:19.494Z,6.11
2023-04-18T06:24:21.458Z,6.05
2023-04-18T06:29:23.550Z,5.95
2023-04-18T06:34:25.853Z,6.02
2023-04-18T06:39:28.047Z,5.95
2023-04-18T06:44:29.745Z,6.01
2023-04-18T06:49:31.591Z,6.05
2023-04-18T06:54:33.506Z,6.03
2023-04-18T06:59:35.893Z,6.24
2023-04-18T07:04:38.129Z,6.19
2023-04-18T07:09:40.160Z,6.45
2023-04-18T07:14:41.932Z,6.49
2023-04-18T07:19:44.350Z,6.44
2023-04-18T07:24:46.176Z,6.32
2023-04-18T07:29:47.889Z,6.30
2023-04-18T07:34:51.476Z,6.34
2023-04-18T07:39:53.287Z,6.30
2023-04-18T07:45:01.055Z,6.14
2023-04-18T07:50:03.150Z,6.25
2023-04-18T07:55:05.682Z,6.37
2023-04-18T08:00:08.021Z,6.53
2023-04-18T08:05:14.522Z,6.38
2023-04-18T08:10:16.337Z,6.61
2023-04-18T08:15:18.377Z,6.62
2023-04-18T08:20:20.137Z,6.52
2023-04-18T08:25:22.338Z,6.65
2023-04-18T08:30:24.150Z,6.91
2023-04-18T08:35:26.273Z,6.91
2023-04-18T08:40:30.190Z,6.91
2023-04-18T08:45:33.328Z,6.97
2023-04-18T08:50:35.219Z,7.07
2023-04-18T08:55:37.468Z,7.07
2023-04-18T09:00:39.186Z,6.90
2023-04-18T09:05:40.979Z,7.08
2023-04-18T09:10:46.523Z,7.24
2023-04-18T09:15:56.185Z,7.08
2023-04-18T09:21:18.614Z,7.19
2023-04-18T09:26:35.822Z,7.24
2023-04-18T09:32:03.809Z,7.15
2023-04-18T09:37:13.678Z,7.18
2023-04-18T09:42:15.799Z,7.17
2023-04-18T09:47:17.500Z,7.25
2023-04-18T09:52:21.300Z,7.07
2023-04-18T09:57:28.762Z,7.03
2023-04-18T10:02:48.183Z,7.13
2023-04-18T10:07:51.053Z,7.21
2023-04-18T10:13:00.697Z,7.10
2023-04-18T10:18:08.751Z,7.14
2023-04-18T10:23:32.688Z,7.30
2023-04-18T10:28:53.778Z,7.27
2023-04-18T10:39:21.967Z,7.31
2023-04-18T10:44:24.262Z,7.34
2023-04-18T10:49:30.299Z,7.43
2023-04-18T10:54:47.116Z,7.51
2023-04-18T10:59:51.001Z,7.58
2023-04-18T11:05:04.793Z,7.63
2023-04-18T11:10:08.538Z,7.55
2023-04-18T11:15:17.630Z,7.47
2023-04-18T11:20:19.645Z,7.57
2023-04-18T11:25:36.579Z,7.66
2023-04-18T11:30:42.430Z,7.69
2023-04-18T11:35:45.833Z,7.95
2023-04-18T11:40:48.475Z,7.71
2023-04-18T11:45:57.641Z,7.66
2023-04-18T11:50:59.354Z,7.75
2023-04-18T11:56:03.409Z,7.94
2023-04-18T12:01:24.370Z,7.76
2023-04-18T12:06:26.964Z,7.73
2023-04-18T12:11:29.456Z,8.15
2023-04-18T12:16:31.503Z,8.17
2023-04-18T12:21:33.320Z,8.13
2023-04-18T12:26:35.433Z,8.13
2023-04-18T12:31:37.397Z,8.16
2023-04-18T12:36:39.156Z,8.10
2023-04-18T12:41:40.894Z,8.18
2023-04-18T12:46:42.698Z,8.15
2023-04-18T12:51:44.524Z,8.07
2023-04-18T12:56:46.462Z,8.02
2023-04-18T13:01:48.095Z,8.24
2023-04-18T13:06:49.817Z,8.16
2023-04-18T13:11:51.610Z,8.22
2023-04-18T13:16:53.428Z,8.06
2023-04-18T13:21:55.759Z,8.01
2023-04-18T13:26:57.538Z,8.08
2023-04-18T13:31:59.353Z,8.18
2023-04-18T13:37:01.307Z,8.23
2023-04-18T13:42:03.424Z,8.26
2023-04-18T13:47:07.049Z,8.34
2023-04-18T13:52:08.810Z,8.38
2023-04-18T13:57:13.311Z,8.24
2023-04-18T14:02:15.302Z,8.36
2023-04-18T14:07:17.727Z,8.41
2023-04-18T14:12:19.330Z,8.41
2023-04-18T14:17:21.062Z,8.34
2023-04-18T14:22:22.805Z,8.60
2023-04-18T14:27:26.225Z,8.68
2023-04-18T14:32:27.932Z,8.61
2023-04-18T14:37:29.548Z,8.71
2023-04-18T14:42:31.220Z,8.86
2023-04-18T14:47:34.630Z,8.61
2023-04-18T14:52:36.430Z,8.65
2023-04-18T14:57:39.559Z,8.69
2023-04-18T15:02:42.118Z,8.73
2023-04-18T15:07:45.120Z,8.88
2023-04-18T15:12:47.034Z,8.80
2023-04-18T15:17:49.021Z,8.81
2023-04-18T15:22:50.813Z,8.80
2023-04-18T15:27:52.911Z,8.72
2023-04-18T15:32:55.730Z,8.70
2023-04-18T15:37:57.715Z,8.82
2023-04-18T15:43:00.753Z,8.83
2023-04-18T15:48:02.547Z,8.86
2023-04-18T15:53:04.236Z,8.92
2023-04-18T15:58:06.648Z,8.78
2023-04-18T16:03:10.348Z,8.68
2023-04-18T16:08:12.162Z,8.70
2023-04-18T16:13:14.096Z,8.78
2023-04-18T16:18:15.833Z,8.57
2023-04-18T16:23:17.580Z,8.71
2023-04-18T16:28:19.283Z,8.93
2023-04-18T16:33:24.719Z,8.75
2023-04-18T16:38:27.401Z,9.00
2023-04-18T16:43:31.040Z,8.84
2023-04-18T16:48:32.816Z,8.73
2023-04-18T16:53:34.576Z,8.67
2023-04-18T16:58:36.227Z,8.60
2023-04-18T17:03:38.030Z,8.52
2023-04-18T17:08:39.797Z,8.40
2023-04-18T17:13:41.864Z,8.40
2023-04-18T17:18:43.562Z,8.47
2023-04-18T17:23:45.666Z,8.69
2023-04-18T17:28:47.335Z,8.53
2023-04-18T17:33:51.945Z,8.56
2023-04-18T17:38:53.600Z,8.51
2023-04-18T17:43:55.446Z,8.50
2023-04-18T17:48:57.223Z,8.49
2023-04-18T17:53:58.968Z,8.51
2023-04-18T17:59:01.132Z,8.58
2023-04-18T18:04:03.158Z,8.48
2023-04-18T18:09:05.375Z,8.41
2023-04-18T18:14:07.197Z,8.49
2023-04-18T18:19:09.743Z,8.46
2023-04-18T18:24:11.689Z,8.63
2023-04-18T18:29:14.115Z,8.99
2023-04-18T18:34:17.024Z,8.99
2023-04-18T18:39:18.963Z,8.84
2023-04-18T18:44:21.200Z,8.87
2023-04-18T18:49:23.020Z,8.62
2023-04-18T18:54:25.920Z,8.56
2023-04-18T18:59:27.605Z,8.72
2023-04-18T19:04:29.621Z,9.21
2023-04-18T19:09:31.625Z,9.19
2023-04-18T19:14:33.679Z,9.14
2023-04-18T19:19:35.592Z,9.14
2023-04-18T19:24:37.342Z,9.10
2023-04-18T19:29:39.524Z,9.00
2023-04-18T19:34:41.326Z,9.01
2023-04-18T19:39:42.978Z,9.10
2023-04-18T19:44:44.593Z,9.28
2023-04-18T19:49:46.272Z,9.04
2023-04-18T19:54:47.998Z,8.99
2023-04-18T19:59:49.598Z,9.10
2023-04-18T20:04:51.447Z,8.94
2023-04-18T20:09:53.388Z,9.12
2023-04-18T20:14:55.838Z,9.06
2023-04-18T20:19:59.517Z,9.18
2023-04-18T20:25:01.599Z,8.97
2023-04-18T20:30:03.523Z,8.86
2023-04-18T20:35:05.772Z,8.79
2023-04-18T20:40:10.881Z,8.76
2023-04-18T20:45:13.700Z,8.79
2023-04-18T20:50:18.069Z,8.99
2023-04-18T20:55:19.940Z,8.98
2023-04-18T21:00:21.805Z,8.78
2023-04-18T21:05:23.668Z,8.64
2023-04-18T21:10:26.256Z,8.56
2023-04-18T21:15:27.955Z,8.71
2023-04-18T21:20:29.607Z,8.59
2023-04-18T21:25:31.337Z,8.55
2023-04-18T21:30:33.090Z,8.70
2023-04-18T21:35:34.808Z,8.61
2023-04-18T21:40:37.552Z,8.51
2023-04-18T21:45:39.249Z,8.56
2023-04-18T21:50:43.151Z,8.66
2023-04-18T21:55:44.835Z,8.85
2023-04-18T22:00:46.504Z,8.65
2023-04-18T22:05:48.214Z,8.62
2023-04-18T22:10:50.473Z,8.76
2023-04-18T22:15:52.168Z,8.79
2023-04-18T22:20:54.867Z,8.63
2023-04-18T22:25:56.582Z,8.56
2023-04-18T22:30:58.486Z,8.72
2023-04-18T22:36:00.791Z,8.61
2023-04-18T22:41:02.431Z,8.67
2023-04-18T22:46:04.131Z,8.59
2023-04-18T22:51:06.195Z,8.64
2023-04-18T22:56:08.045Z,8.64
2023-04-18T23:01:09.758Z,8.49
2023-04-18T23:06:11.414Z,8.41
2023-04-18T23:11:13.607Z,8.39
2023-04-18T23:16:15.502Z,8.50
2023-04-18T23:21:17.867Z,8.45
2023-04-18T23:26:19.682Z,8.39
2023-04-18T23:31:21.962Z,8.67
2023-04-18T23:36:23.649Z,8.72
2023-04-18T23:41:25.569Z,8.55
2023-04-18T23:46:27.719Z,8.64
2023-04-18T23:51:29.301Z,8.58
2023-04-18T23:56:30.998Z,8.61
